Time;durP1;ratioP1;P1;durP2;ratioP2;P2;SDS_P1;SDS_P2;PMS_P1;PMS_P2;Temp;Humidity;BMP_temperature;BMP_pressure;BME280_temperature;BME280_humidity;BME280_pressure;Samples;Min_cycle;Max_cycle;Signal;HPM_P1;HPM_P2
2022/11/20 00:00:54;;;;;;;63.80;32.08;;;;;;;10.33;100.00;98448.72;6276194;22;20014;-85
2022/11/20 00:03:20;;;;;;;70.53;32.90;;;;;;;10.09;100.00;98440.53;6276244;22;20012;-83
2022/11/20 00:05:46;;;;;;;66.32;32.47;;;;;;;10.21;100.00;98432.03;6276028;22;20014;-84
2022/11/20 00:08:11;;;;;;;68.25;31.92;;;;;;;10.06;100.00;98417.34;6276066;22;20323;-84
2022/11/20 00:10:38;;;;;;;65.85;31.95;;;;;;;10.14;100.00;98422.38;6248861;22;20497;-83
2022/11/20 00:13:04;;;;;;;62.00;31.08;;;;;;;10.32;100.00;98418.28;6276009;22;20038;-83
2022/11/20 00:15:30;;;;;;;66.50;32.53;;;;;;;10.03;100.00;98417.78;6276233;22;20012;-82
2022/11/20 00:17:55;;;;;;;69.15;33.22;;;;;;;9.90;100.00;98409.94;6276494;22;20007;-85
2022/11/20 00:20:21;;;;;;;73.85;34.22;;;;;;;10.00;100.00;98416.34;6223515;22;20012;-82
2022/11/20 00:22:46;;;;;;;74.85;34.92;;;;;;;9.90;100.00;98410.72;6275740;22;20018;-83
2022/11/20 00:25:14;;;;;;;67.10;33.45;;;;;;;10.06;100.00;98414.75;6275307;22;20432;-83
2022/11/20 00:27:39;;;;;;;68.50;32.85;;;;;;;9.97;100.00;98408.91;6275945;22;20025;-84
2022/11/20 00:30:06;;;;;;;63.95;31.92;;;;;;;10.09;100.00;98403.81;6275845;22;20062;-84
2022/11/20 00:32:31;;;;;;;64.38;31.73;;;;;;;10.09;100.00;98398.59;6275926;22;20015;-84
2022/11/20 00:34:57;;;;;;;62.13;30.70;;;;;;;10.05;100.00;98396.56;6248751;22;20011;-84
2022/11/20 00:37:22;;;;;;;65.57;32.63;;;;;;;10.12;100.00;98390.31;6276145;22;20061;-84
2022/11/20 00:39:48;;;;;;;67.28;33.25;;;;;;;10.20;100.00;98384.03;6249160;22;20004;-83
2022/11/20 00:42:14;;;;;;;63.63;30.42;;;;;;;10.18;100.00;98370.31;6275921;22;20015;-84
2022/11/20 00:44:39;;;;;;;70.30;32.63;;;;;;;10.28;100.00;98369.88;6248521;22;20050;-84
2022/11/20 00:47:05;;;;;;;67.10;31.38;;;;;;;10.33;100.00;98371.88;6226549;22;20011;-85
2022/11/20 00:49:30;;;;;;;71.30;31.58;;;;;;;10.12;100.00;98369.31;6226331;22;20014;-87
2022/11/20 00:51:56;;;;;;;60.30;31.05;;;;;;;10.17;100.00;98362.63;6251864;22;20434;-88
2022/11/20 00:54:21;;;;;;;54.65;29.65;;;;;;;10.24;100.00;98358.97;6251892;22;20031;-88
2022/11/20 00:56:47;;;;;;;61.95;30.10;;;;;;;10.26;100.00;98359.56;6226718;22;20007;-86
2022/11/20 00:59:13;;;;;;;57.83;29.00;;;;;;;10.22;100.00;98354.94;6278496;22;20018;-85
2022/11/20 01:01:39;;;;;;;61.15;30.58;;;;;;;10.28;100.00;98354.91;6278588;22;20011;-86
2022/11/20 01:04:04;;;;;;;67.65;30.45;;;;;;;10.27;100.00;98347.28;6251306;22;20438;-85
2022/11/20 01:06:32;;;;;;;53.53;28.65;;;;;;;10.14;100.00;98353.38;6278745;22;20512;-86
2022/11/20 01:09:00;;;;;;;57.45;28.67;;;;;;;10.12;100.00;98342.28;6251324;22;20007;-86
2022/11/20 01:11:29;;;;;;;57.28;29.05;;;;;;;10.14;100.00;98335.81;6278874;22;20347;-87
2022/11/20 01:13:56;;;;;;;55.63;28.25;;;;;;;10.08;100.00;98323.56;6252217;22;20457;-86
2022/11/20 01:16:25;;;;;;;57.53;29.05;;;;;;;10.07;100.00;98316.69;6252187;22;20017;-86
2022/11/20 01:18:53;;;;;;;61.80;28.95;;;;;;;10.11;100.00;98323.13;6251940;22;20422;-87
2022/11/20 01:21:22;;;;;;;63.13;29.85;;;;;;;10.11;100.00;98312.66;6252043;22;20506;-87
2022/11/20 01:23:49;;;;;;;57.63;28.70;;;;;;;10.25;100.00;98317.84;6278887;22;20016;-86
2022/11/20 01:26:18;;;;;;;63.30;32.28;;;;;;;10.19;100.00;98308.16;6252278;22;20438;-86
2022/11/20 01:28:43;;;;;;;53.75;28.95;;;;;;;10.21;100.00;98308.75;6278352;22;20015;-86
2022/11/20 01:31:15;;;;;;;63.70;31.00;;;;;;;10.17;100.00;98308.38;6278682;22;20342;-85
2022/11/20 01:33:42;;;;;;;68.40;30.52;;;;;;;10.12;100.00;98295.91;6278510;22;20438;-86
2022/11/20 01:36:09;;;;;;;59.22;29.35;;;;;;;10.17;100.00;98300.53;6251436;22;20043;-85
2022/11/20 01:38:34;;;;;;;65.80;30.80;;;;;;;10.06;100.00;98288.06;6252065;22;20088;-86
2022/11/20 01:41:00;;;;;;;61.90;30.05;;;;;;;10.05;100.00;98291.69;6278727;22;20088;-86
2022/11/20 01:43:26;;;;;;;61.95;30.63;;;;;;;10.13;100.00;98289.63;6251696;22;20448;-88
2022/11/20 01:46:15;;;;;;;63.17;31.27;;;;;;;10.04;100.00;98279.59;6277871;22;20012;-86
2022/11/20 01:48:52;;;;;;;60.95;29.40;;;;;;;9.97;100.00;98277.81;6277311;22;20007;-86
2022/11/20 01:51:41;;;;;;;63.38;29.92;;;;;;;10.04;100.00;98274.34;6278281;22;20022;-86
2022/11/20 01:54:13;;;;;;;58.15;28.20;;;;;;;9.94;100.00;98259.91;6278237;22;20011;-86
2022/11/20 01:56:43;;;;;;;41.72;21.63;;;;;;;9.80;100.00;98259.13;6278037;22;20019;-86
2022/11/20 01:59:13;;;;;;;58.30;27.63;;;;;;;9.72;100.00;98251.53;6278881;22;20023;-86
2022/11/20 02:01:40;;;;;;;59.88;27.48;;;;;;;9.89;100.00;98251.03;6252117;22;20075;-87
2022/11/20 02:04:12;;;;;;;65.97;27.70;;;;;;;9.80;100.00;98246.03;6278657;22;20020;-86
2022/11/20 02:07:04;;;;;;;58.72;29.38;;;;;;;10.01;100.00;98246.72;6277746;22;20017;-87
2022/11/20 02:09:31;;;;;;;58.70;28.05;;;;;;;9.78;100.00;98250.69;6270675;22;20038;-85
2022/11/20 02:11:58;;;;;;;52.95;26.38;;;;;;;9.89;100.00;98245.81;6276045;22;20086;-85
2022/11/20 02:14:25;;;;;;;65.30;28.58;;;;;;;9.84;100.00;98238.56;6276503;22;20003;-85
2022/11/20 02:16:51;;;;;;;61.22;27.13;;;;;;;9.97;100.00;98245.53;6250446;22;20430;-86
2022/11/20 02:19:26;;;;;;;56.90;28.33;;;;;;;9.99;100.00;98240.91;6278000;22;20010;-86
2022/11/20 02:22:24;;;;;;;60.65;27.45;;;;;;;10.13;100.00;98237.19;6277532;22;20013;-86
2022/11/20 02:24:51;;;;;;;55.90;26.45;;;;;;;10.08;100.00;98223.91;6277786;22;20016;-87
2022/11/20 02:27:17;;;;;;;62.67;28.65;;;;;;;10.01;100.00;98223.13;6278182;22;20011;-87
2022/11/20 02:30:05;;;;;;;58.08;26.85;;;;;;;10.09;100.00;98207.16;6278188;22;20007;-85
2022/11/20 02:32:35;;;;;;;58.08;26.60;;;;;;;10.04;100.00;98199.13;6251339;22;20011;-85
2022/11/20 02:35:19;;;;;;;60.92;27.25;;;;;;;9.90;100.00;98205.47;6278206;22;20098;-86
2022/11/20 02:37:49;;;;;;;55.90;26.05;;;;;;;9.87;100.00;98188.34;6278439;22;20012;-87
2022/11/20 02:40:15;;;;;;;56.13;26.30;;;;;;;9.83;100.00;98189.78;6278056;22;20015;-86
2022/11/20 02:42:41;;;;;;;50.35;25.45;;;;;;;9.93;100.00;98189.31;6225736;22;20015;-86
2022/11/20 02:45:07;;;;;;;51.03;25.40;;;;;;;9.89;100.00;98181.06;6251264;22;20003;-87
2022/11/20 02:47:33;;;;;;;58.22;26.27;;;;;;;9.80;100.00;98180.50;6251111;22;20008;-87
2022/11/20 02:49:59;;;;;;;58.13;24.85;;;;;;;9.70;100.00;98169.69;6250475;22;20446;-86
2022/11/20 02:52:25;;;;;;;54.78;24.77;;;;;;;9.89;100.00;98172.41;6277402;22;20012;-84
2022/11/20 02:54:52;;;;;;;53.97;24.90;;;;;;;9.75;100.00;98159.38;6276177;22;20019;-85
2022/11/20 02:57:18;;;;;;;52.95;24.70;;;;;;;9.85;100.00;98162.34;6276159;22;20088;-84
2022/11/20 02:59:44;;;;;;;50.75;22.98;;;;;;;9.74;100.00;98154.34;6276643;22;20402;-83
2022/11/20 03:02:09;;;;;;;48.70;23.30;;;;;;;9.83;100.00;98153.91;6276390;22;20015;-84
2022/11/20 03:04:36;;;;;;;42.42;21.65;;;;;;;9.85;100.00;98141.38;6276451;22;20015;-85
2022/11/20 03:07:01;;;;;;;44.42;21.60;;;;;;;9.73;100.00;98137.81;6276251;22;20011;-84
2022/11/20 03:09:27;;;;;;;43.72;21.63;;;;;;;9.84;100.00;98137.16;6249607;22;20438;-84
2022/11/20 03:11:52;;;;;;;45.65;22.05;;;;;;;9.88;100.00;98139.34;6276556;22;20433;-84
2022/11/20 03:14:18;;;;;;;58.17;23.67;;;;;;;9.90;100.00;98137.31;6276230;22;20381;-84
2022/11/20 03:16:43;;;;;;;37.75;19.48;;;;;;;9.91;100.00;98128.44;6276925;22;20007;-83
2022/11/20 03:19:09;;;;;;;42.67;20.10;;;;;;;9.92;100.00;98124.78;6277229;22;20459;-84
2022/11/20 03:21:35;;;;;;;40.78;20.33;;;;;;;9.51;100.00;98119.81;6277203;22;20056;-86
2022/11/20 03:24:01;;;;;;;38.75;19.92;;;;;;;9.73;100.00;98111.63;6276484;22;20350;-84
2022/11/20 03:26:28;;;;;;;38.97;19.15;;;;;;;9.91;100.00;98117.94;6250267;22;20514;-84
2022/11/20 03:28:56;;;;;;;41.38;19.52;;;;;;;9.84;100.00;98110.13;6276431;22;20007;-84
2022/11/20 03:31:26;;;;;;;38.75;17.88;;;;;;;9.85;100.00;98103.88;6249348;22;20074;-85
2022/11/20 03:33:52;;;;;;;35.38;16.65;;;;;;;9.74;100.00;98096.72;6248556;22;20664;-85
2022/11/20 03:36:19;;;;;;;45.80;17.65;;;;;;;9.81;100.00;98090.38;6276442;22;20035;-84
2022/11/20 03:38:45;;;;;;;42.08;17.90;;;;;;;9.82;100.00;98086.75;6276245;22;20031;-84
2022/11/20 03:41:20;;;;;;;38.05;16.98;;;;;;;9.85;100.00;98077.66;6223671;22;20099;-84
2022/11/20 03:43:51;;;;;;;41.63;18.25;;;;;;;9.83;100.00;98064.78;6248842;22;20007;-85
2022/11/20 03:46:18;;;;;;;38.08;17.33;;;;;;;9.82;100.00;98057.91;6276207;22;20087;-84
2022/11/20 03:48:44;;;;;;;31.75;17.05;;;;;;;9.71;100.00;98054.16;6276308;22;20032;-85
2022/11/20 03:51:16;;;;;;;36.65;16.88;;;;;;;9.73;100.00;98051.34;6276350;22;20487;-85
2022/11/20 03:53:43;;;;;;;37.08;16.38;;;;;;;9.89;100.00;98047.38;6249204;22;20015;-85
2022/11/20 03:56:10;;;;;;;30.50;15.73;;;;;;;9.96;100.00;98042.09;6276453;22;20015;-85
2022/11/20 03:58:39;;;;;;;32.88;16.58;;;;;;;9.80;100.00;98028.50;6276943;22;20063;-86
2022/11/20 04:01:14;;;;;;;35.08;16.23;;;;;;;9.81;100.00;98026.69;6250305;22;20012;-86
2022/11/20 04:03:41;;;;;;;26.38;14.02;;;;;;;9.72;100.00;98026.16;6277422;22;20338;-85
2022/11/20 04:06:12;;;;;;;26.27;13.70;;;;;;;9.75;100.00;98028.34;6277365;22;19999;-85
2022/11/20 04:08:38;;;;;;;27.92;13.70;;;;;;;9.70;100.00;98022.94;6277691;22;20008;-86
2022/11/20 04:11:17;;;;;;;25.92;12.57;;;;;;;9.80;100.00;98031.13;6277091;22;20354;-84
2022/11/20 04:13:47;;;;;;;26.10;12.13;;;;;;;9.70;100.00;98021.13;6276585;22;20039;-84
2022/11/20 04:16:13;;;;;;;27.50;11.50;;;;;;;9.69;100.00;98016.09;6276606;22;20020;-85
2022/11/20 04:18:39;;;;;;;22.85;12.40;;;;;;;9.74;100.00;98013.63;6277597;22;20145;-87
2022/11/20 04:21:06;;;;;;;24.08;12.35;;;;;;;9.75;100.00;98004.75;6278680;22;20008;-85
2022/11/20 04:23:32;;;;;;;25.23;11.65;;;;;;;9.63;100.00;98001.22;6278260;22;20043;-85
2022/11/20 04:26:07;;;;;;;24.17;11.70;;;;;;;9.82;100.00;98004.69;6251497;22;20013;-86
2022/11/20 04:28:33;;;;;;;24.98;10.57;;;;;;;9.81;100.00;97997.88;6278521;22;20429;-86
2022/11/20 04:31:07;;;;;;;19.02;12.15;;;;;;;9.75;100.00;97991.66;6278237;22;20015;-85
2022/11/20 04:33:34;;;;;;;21.42;11.18;;;;;;;9.63;100.00;97981.06;6278468;22;20015;-86
2022/11/20 04:36:03;;;;;;;23.75;10.63;;;;;;;9.71;100.00;97993.09;6277574;22;20008;-83
2022/11/20 04:38:29;;;;;;;18.63;10.00;;;;;;;9.73;100.00;97991.06;6277366;22;20434;-83
2022/11/20 04:40:59;;;;;;;22.85;11.45;;;;;;;9.80;100.00;97980.53;6277491;22;20095;-85
2022/11/20 04:43:25;;;;;;;24.50;11.82;;;;;;;9.79;100.00;97982.34;6250381;22;20011;-85
2022/11/20 04:45:52;;;;;;;23.05;11.32;;;;;;;9.62;100.00;97986.50;6249757;22;20452;-83
2022/11/20 04:48:18;;;;;;;24.13;12.05;;;;;;;9.65;100.00;97991.34;6277152;22;20425;-84
2022/11/20 04:50:44;;;;;;;16.52;10.25;;;;;;;9.46;100.00;97988.69;6276929;22;20026;-86
2022/11/20 04:53:10;;;;;;;18.67;10.65;;;;;;;9.46;100.00;97988.69;6277141;22;20007;-84
2022/11/20 04:55:35;;;;;;;16.17;10.13;;;;;;;9.46;100.00;97983.44;6277078;22;20161;-85
2022/11/20 04:58:01;;;;;;;18.75;10.25;;;;;;;9.65;100.00;97983.50;6276730;22;20008;-85
2022/11/20 05:00:26;;;;;;;17.75;10.25;;;;;;;9.58;100.00;97983.53;6276813;22;20007;-84
2022/11/20 05:02:52;;;;;;;16.73;10.52;;;;;;;9.62;100.00;97983.91;6276855;22;20012;-83
2022/11/20 05:05:18;;;;;;;19.02;9.63;;;;;;;9.54;100.00;97988.41;6276830;22;20008;-84
2022/11/20 05:07:43;;;;;;;18.45;9.77;;;;;;;9.56;100.00;97985.56;6249301;22;20016;-84
2022/11/20 05:10:09;;;;;;;19.98;10.32;;;;;;;9.69;100.00;97984.66;6276175;22;20371;-84
2022/11/20 05:12:34;;;;;;;14.93;9.38;;;;;;;9.76;100.00;97982.78;6276516;22;20003;-83
2022/11/20 05:15:02;;;;;;;15.48;9.13;;;;;;;9.80;100.00;97981.31;6276183;22;20090;-84
2022/11/20 05:17:27;;;;;;;14.88;8.98;;;;;;;9.76;100.00;97990.63;6276482;22;20454;-83
2022/11/20 05:19:53;;;;;;;14.45;8.90;;;;;;;9.77;100.00;97987.00;6276968;22;20012;-83
2022/11/20 05:22:19;;;;;;;14.30;8.43;;;;;;;9.73;100.00;97996.31;6276204;22;20019;-83
2022/11/20 05:24:45;;;;;;;11.27;8.25;;;;;;;9.78;100.00;97996.47;6249846;22;20437;-85
2022/11/20 05:27:10;;;;;;;13.65;7.90;;;;;;;9.84;100.00;97986.94;6276664;22;20086;-84
2022/11/20 05:29:36;;;;;;;13.20;7.80;;;;;;;9.79;100.00;97969.22;6248493;22;20086;-84
2022/11/20 05:32:02;;;;;;;11.77;7.80;;;;;;;9.73;100.00;98001.56;6223434;22;20389;-83
2022/11/20 05:34:28;;;;;;;9.68;6.53;;;;;;;9.82;100.00;97995.00;6276291;22;20011;-85
2022/11/20 05:36:53;;;;;;;8.98;6.35;;;;;;;9.89;100.00;97981.06;6276124;22;20007;-83
2022/11/20 05:39:19;;;;;;;10.60;5.78;;;;;;;9.79;100.00;97971.84;6277735;22;20295;-84
2022/11/20 05:41:44;;;;;;;6.32;4.57;;;;;;;9.79;100.00;97956.13;6249932;22;20026;-85
2022/11/20 05:44:11;;;;;;;6.55;4.03;;;;;;;9.76;100.00;97964.44;6249097;22;20437;-84
2022/11/20 05:46:37;;;;;;;7.38;2.78;;;;;;;9.69;100.00;97947.97;6276991;22;20019;-85
2022/11/20 05:49:02;;;;;;;3.97;2.28;;;;;;;9.79;100.00;97943.03;6277570;22;20342;-84
2022/11/20 05:51:28;;;;;;;3.15;2.28;;;;;;;9.72;100.00;97943.09;6250104;22;20010;-84
2022/11/20 05:53:57;;;;;;;3.25;2.20;;;;;;;9.61;100.00;97941.19;6250370;22;20008;-85
2022/11/20 05:56:23;;;;;;;2.50;2.30;;;;;;;9.73;100.00;97941.28;6250540;22;20015;-85
2022/11/20 05:58:49;;;;;;;4.75;2.58;;;;;;;9.72;100.00;97937.06;6277210;22;20007;-84
2022/11/20 06:01:24;;;;;;;2.92;2.58;;;;;;;9.69;100.00;97932.25;6224617;22;20450;-85
2022/11/20 06:03:53;;;;;;;2.78;2.50;;;;;;;9.71;100.00;97940.69;6277016;22;20039;-84
2022/11/20 06:06:19;;;;;;;3.75;3.00;;;;;;;9.73;100.00;97922.94;6276825;22;20014;-84
2022/11/20 06:08:45;;;;;;;3.30;2.50;;;;;;;9.80;100.00;97921.03;6276211;22;20095;-83
2022/11/20 06:11:13;;;;;;;4.97;3.20;;;;;;;9.94;100.00;97923.53;6277109;22;20012;-83
2022/11/20 06:13:39;;;;;;;4.15;3.15;;;;;;;9.88;100.00;97919.19;6276721;22;20008;-84
2022/11/20 06:16:05;;;;;;;6.13;4.28;;;;;;;9.76;100.00;97925.13;6276041;22;20014;-84
2022/11/20 06:18:31;;;;;;;4.47;3.75;;;;;;;9.91;100.00;97923.97;6248757;22;20086;-83
2022/11/20 06:21:14;;;;;;;5.85;4.43;;;;;;;9.69;100.00;97921.78;6249214;22;20049;-82
2022/11/20 06:23:40;;;;;;;5.03;4.18;;;;;;;9.72;100.00;97916.88;6275844;22;20445;-82
2022/11/20 06:26:11;;;;;;;5.18;4.00;;;;;;;9.59;100.00;97906.53;6248833;22;20452;-83
2022/11/20 06:28:38;;;;;;;4.65;3.30;;;;;;;9.58;100.00;97908.34;6275161;22;22281;-83
2022/11/20 06:31:04;;;;;;;5.18;3.85;;;;;;;9.48;100.00;97907.25;6275892;22;20347;-84
2022/11/20 06:33:30;;;;;;;4.57;3.70;;;;;;;9.50;100.00;97908.63;6248586;22;20022;-84
2022/11/20 06:36:00;;;;;;;5.00;3.47;;;;;;;9.60;100.00;97902.09;6248203;22;20016;-83
2022/11/20 06:38:26;;;;;;;6.05;3.60;;;;;;;9.56;100.00;97902.53;6275646;22;20035;-83
2022/11/20 06:40:52;;;;;;;6.07;4.53;;;;;;;9.47;100.00;97905.63;6276147;22;20404;-84
2022/11/20 06:43:17;;;;;;;7.43;4.30;;;;;;;9.67;100.00;97902.84;6248594;22;20011;-83
2022/11/20 06:45:43;;;;;;;8.13;4.75;;;;;;;9.71;100.00;97896.94;6275167;22;20011;-82
2022/11/20 06:48:09;;;;;;;8.27;5.07;;;;;;;9.78;100.00;97911.81;6275500;22;20026;-83
2022/11/20 06:50:36;;;;;;;6.82;5.70;;;;;;;9.78;100.00;97909.19;6248628;22;20095;-85
2022/11/20 06:53:04;;;;;;;7.80;5.10;;;;;;;9.98;100.00;97903.72;6275850;22;20012;-84
2022/11/20 06:55:31;;;;;;;8.30;5.32;;;;;;;9.89;100.00;97899.81;6248531;22;20082;-84
2022/11/20 06:57:56;;;;;;;9.18;5.85;;;;;;;9.53;100.00;97897.72;6248447;22;20345;-83
2022/11/20 07:00:22;;;;;;;10.82;6.80;;;;;;;9.56;100.00;97902.53;6275640;22;20083;-84
2022/11/20 07:02:48;;;;;;;7.43;6.07;;;;;;;9.57;100.00;97906.75;6275843;22;20007;-83
2022/11/20 07:05:14;;;;;;;10.70;7.10;;;;;;;9.46;100.00;97907.47;6275655;22;20015;-85
2022/11/20 07:07:39;;;;;;;11.82;6.65;;;;;;;9.35;100.00;97905.53;6249227;22;20015;-83
2022/11/20 07:10:05;;;;;;;11.13;7.03;;;;;;;9.22;100.00;97912.47;6275945;22;20047;-83
2022/11/20 07:12:31;;;;;;;14.02;6.50;;;;;;;9.27;100.00;97917.91;6248338;22;20069;-83
2022/11/20 07:14:56;;;;;;;13.70;6.57;;;;;;;9.25;100.00;97911.25;6275760;22;20042;-84
2022/11/20 07:17:23;;;;;;;14.02;7.72;;;;;;;9.28;100.00;97918.69;6249764;22;20031;-85
2022/11/20 07:19:48;;;;;;;13.18;6.35;;;;;;;9.07;100.00;97912.00;6249457;22;20008;-83
2022/11/20 07:22:14;;;;;;;16.25;5.55;;;;;;;9.22;100.00;97914.31;6275277;22;20452;-85
2022/11/20 07:24:39;;;;;;;13.95;6.38;;;;;;;9.17;100.00;97930.66;6249122;22;20011;-83
2022/11/20 07:27:05;;;;;;;14.13;6.90;;;;;;;9.12;100.00;97933.91;6275833;22;20008;-82
2022/11/20 07:29:31;;;;;;;12.65;7.40;;;;;;;9.09;100.00;97939.56;6276133;22;20464;-84
2022/11/20 07:31:56;;;;;;;12.20;7.05;;;;;;;9.06;100.00;97942.59;6249368;22;20442;-85
2022/11/20 07:34:22;;;;;;;13.75;7.65;;;;;;;9.03;100.00;97940.41;6223980;22;20012;-84
2022/11/20 07:36:48;;;;;;;20.33;7.70;;;;;;;9.10;100.00;97937.75;6276151;22;20039;-84
2022/11/20 07:39:13;;;;;;;12.68;6.07;;;;;;;9.11;100.00;97936.75;6275815;22;20035;-82
2022/11/20 07:41:39;;;;;;;12.80;6.38;;;;;;;9.17;100.00;97935.09;6248725;22;20015;-84
2022/11/20 07:44:04;;;;;;;11.60;7.25;;;;;;;9.16;100.00;97947.38;6248538;22;20011;-85
2022/11/20 07:46:30;;;;;;;13.18;8.07;;;;;;;9.16;100.00;97944.75;6248405;22;20011;-84
2022/11/20 07:48:56;;;;;;;11.05;7.03;;;;;;;9.08;100.00;97950.25;6275657;22;20509;-83
2022/11/20 07:51:21;;;;;;;12.35;7.40;;;;;;;9.06;100.00;97944.44;6248488;22;20098;-82
2022/11/20 07:53:47;;;;;;;30.92;8.65;;;;;;;9.08;100.00;97953.66;6249644;22;20018;-82
2022/11/20 07:56:13;;;;;;;21.30;9.63;;;;;;;9.20;100.00;97961.63;6278253;22;20446;-83
2022/11/20 07:58:39;;;;;;;31.92;10.93;;;;;;;8.82;100.00;97971.13;6251754;22;20022;-82
2022/11/20 08:01:07;;;;;;;29.98;9.95;;;;;;;9.15;100.00;97974.56;6277711;22;20042;-83
2022/11/20 08:03:37;;;;;;;23.95;10.50;;;;;;;9.10;100.00;97975.19;6251684;22;20043;-84
2022/11/20 08:06:03;;;;;;;37.30;14.55;;;;;;;9.00;100.00;97977.50;6251631;22;20015;-82
2022/11/20 08:08:29;;;;;;;32.25;13.70;;;;;;;9.19;100.00;97977.56;6251015;22;20015;-82
2022/11/20 08:14:11;;;;;;;43.08;14.10;;;;;;;9.07;100.00;97972.22;6277861;22;20019;-82
2022/11/20 08:16:27;;;;;;;31.13;11.63;;;;;;;9.06;100.00;97988.94;6276651;22;20090;-82
2022/11/20 08:18:54;;;;;;;20.13;11.23;;;;;;;9.31;100.00;97982.94;6250891;22;20031;-82
2022/11/20 08:21:19;;;;;;;27.20;11.05;;;;;;;9.17;100.00;97993.47;6249979;22;20015;-83
2022/11/20 08:23:45;;;;;;;26.90;11.23;;;;;;;9.32;100.00;98008.88;6244396;23;20016;-82
2022/11/20 08:26:11;;;;;;;21.38;10.40;;;;;;;9.29;100.00;98002.28;6245100;23;20391;-83
2022/11/20 08:28:37;;;;;;;24.02;10.48;;;;;;;9.64;100.00;97992.38;6247053;22;20051;-82
2022/11/20 08:31:04;;;;;;;28.70;10.63;;;;;;;9.67;100.00;97986.69;6245760;23;20457;-85
2022/11/20 08:33:32;;;;;;;22.80;9.20;;;;;;;9.36;100.00;97985.72;6246775;23;20464;-84
2022/11/20 08:36:02;;;;;;;28.08;8.93;;;;;;;9.41;100.00;98002.41;6247083;22;20347;-82
2022/11/20 08:38:28;;;;;;;23.63;8.68;;;;;;;9.50;100.00;98002.94;6246675;23;20012;-83
2022/11/20 08:43:46;;;;;;;20.20;7.97;;;;;;;10.20;100.00;98000.31;6246546;23;20379;-82
2022/11/20 08:46:11;;;;;;;33.45;8.82;;;;;;;10.08;100.00;97995.78;6245276;23;20046;-82
2022/11/20 08:48:37;;;;;;;25.95;8.77;;;;;;;10.12;100.00;97999.59;6246079;22;20008;-82
2022/11/20 08:51:03;;;;;;;27.83;9.90;;;;;;;10.55;100.00;98007.63;6246190;23;20063;-83
2022/11/20 08:53:29;;;;;;;24.17;8.20;;;;;;;10.28;100.00;98013.94;6244965;23;20446;-83
2022/11/20 08:55:54;;;;;;;24.35;7.57;;;;;;;10.55;100.00;98024.19;6246229;22;20019;-84
2022/11/20 08:58:20;;;;;;;20.42;6.85;;;;;;;9.96;100.00;98023.72;6245860;22;20012;-81
2022/11/20 09:00:45;;;;;;;29.92;7.07;;;;;;;10.19;100.00;98010.00;6243529;23;20717;-81
2022/11/20 09:03:13;;;;;;;19.30;6.13;;;;;;;10.74;100.00;98010.25;6245042;22;20035;-81
2022/11/20 09:05:39;;;;;;;31.40;6.95;;;;;;;10.89;100.00;98007.22;6244112;22;20012;-82
2022/11/20 09:08:04;;;;;;;23.58;6.80;;;;;;;10.79;100.00;98010.38;6244349;22;20042;-81
2022/11/20 09:10:30;;;;;;;27.02;6.75;;;;;;;10.79;100.00;97994.63;6243019;23;20004;-82
2022/11/20 09:12:56;;;;;;;23.85;6.70;;;;;;;10.70;100.00;98012.50;6244604;22;20016;-83
2022/11/20 09:15:22;;;;;;;30.10;6.55;;;;;;;10.64;100.00;98026.50;6244367;22;20055;-82
2022/11/20 09:17:55;;;;;;;29.35;6.05;;;;;;;10.80;100.00;98022.47;6244649;22;20008;-80
2022/11/20 09:20:21;;;;;;;25.58;7.10;;;;;;;10.40;100.00;98019.28;6244024;22;20035;-83
2022/11/20 09:22:48;;;;;;;28.50;7.18;;;;;;;10.27;100.00;98022.03;6251204;22;20015;-84
2022/11/20 09:25:13;;;;;;;24.75;6.35;;;;;;;10.33;100.00;98026.41;6248533;22;20016;-84
2022/11/20 09:27:41;;;;;;;27.77;6.43;;;;;;;10.39;100.00;98033.41;6247904;22;20011;-82
2022/11/20 09:30:07;;;;;;;27.42;6.50;;;;;;;10.65;100.00;98028.94;6247356;22;20372;-82
2022/11/20 09:32:32;;;;;;;20.02;6.40;;;;;;;10.80;100.00;98019.84;6274519;22;20011;-81
2022/11/20 09:34:58;;;;;;;25.23;7.15;;;;;;;10.75;100.00;98022.34;6274686;22;20338;-82
2022/11/20 09:37:23;;;;;;;29.90;7.82;;;;;;;10.68;100.00;98030.28;6274637;22;20025;-83
2022/11/20 09:39:49;;;;;;;28.42;7.32;;;;;;;10.60;100.00;98026.13;6246626;22;20030;-83
2022/11/20 09:42:30;;;;;;;33.83;8.68;;;;;;;10.45;100.00;98033.59;6272629;22;20019;-82
2022/11/20 09:45:08;;;;;;;35.03;8.52;;;;;;;10.37;100.00;98030.19;6246453;22;20015;-84
2022/11/20 09:48:13;;;;;;;28.30;7.68;;;;;;;10.34;100.00;98030.63;6274940;22;20331;-83
2022/11/20 09:51:08;;;;;;;30.30;8.88;;;;;;;10.19;100.00;98017.06;6274611;22;20287;-84
2022/11/20 09:53:52;;;;;;;32.35;8.57;;;;;;;10.67;100.00;98023.44;6274217;22;20015;-83
2022/11/20 09:56:20;;;;;;;31.52;8.65;;;;;;;10.67;100.00;98019.00;6275275;22;20389;-83
2022/11/20 09:58:50;;;;;;;25.35;7.97;;;;;;;10.65;100.00;98023.69;6274195;22;20086;-82
2022/11/20 10:01:23;;;;;;;25.42;7.72;;;;;;;10.99;100.00;98013.53;6248069;22;20018;-81
2022/11/20 10:03:55;;;;;;;31.30;7.30;;;;;;;10.65;100.00;98021.06;6274601;22;20466;-80
2022/11/20 10:06:31;;;;;;;21.03;7.00;;;;;;;10.21;100.00;98004.53;6247798;22;20350;-80
2022/11/20 10:09:16;;;;;;;17.48;5.75;;;;;;;10.11;100.00;98013.72;6248053;22;20019;-79
2022/11/20 10:12:06;;;;;;;26.80;6.50;;;;;;;10.24;100.00;98007.53;6248114;22;20008;-79
2022/11/20 10:14:37;;;;;;;16.55;5.05;;;;;;;10.35;100.00;98008.63;6274902;22;20094;-80
2022/11/20 10:17:15;;;;;;;22.08;4.47;;;;;;;10.27;100.00;98007.09;6247900;22;20027;-82
2022/11/20 10:19:40;;;;;;;18.17;4.78;;;;;;;10.41;100.00;98007.78;6274753;22;20058;-84
2022/11/20 10:22:30;;;;;;;15.00;4.03;;;;;;;10.21;100.00;98009.78;6248876;22;20434;-83
2022/11/20 10:25:04;;;;;;;16.88;4.93;;;;;;;10.70;100.00;98020.38;6248514;22;20069;-82
2022/11/20 10:27:35;;;;;;;15.07;4.50;;;;;;;10.55;100.00;98020.75;6274771;22;20019;-83
2022/11/20 10:30:08;;;;;;;15.68;4.50;;;;;;;10.20;100.00;98018.66;6274325;22;20635;-80
2022/11/20 10:32:48;;;;;;;18.90;4.32;;;;;;;10.20;100.00;98008.19;6274886;22;20469;-83
2022/11/20 10:35:13;;;;;;;13.65;4.63;;;;;;;10.09;100.00;98013.13;6274330;22;20350;-83
2022/11/20 10:37:46;;;;;;;20.75;4.63;;;;;;;9.88;100.00;98009.06;6247674;22;20011;-83
2022/11/20 10:40:33;;;;;;;21.52;4.68;;;;;;;10.09;100.00;98013.13;6275487;22;20287;-83
2022/11/20 10:43:06;;;;;;;23.00;4.85;;;;;;;10.19;100.00;98012.63;6248201;22;20447;-83
2022/11/20 10:45:40;;;;;;;14.07;4.95;;;;;;;10.25;100.00;98021.47;6275559;22;20061;-83
2022/11/20 10:48:22;;;;;;;;;;;;;;;10.62;100.00;98025.94;6275495;22;20016;-84
2022/11/20 10:50:55;;;;;;;23.27;5.20;;;;;;;10.55;100.00;98012.88;6275537;22;19911;-84
2022/11/20 10:53:39;;;;;;;26.38;6.05;;;;;;;10.86;100.00;98008.47;6275351;22;20008;-83
2022/11/20 10:56:15;;;;;;;27.10;4.90;;;;;;;11.02;100.00;97999.19;6275183;22;20011;-82
2022/11/20 10:59:04;;;;;;;27.38;5.38;;;;;;;10.64;100.00;98001.09;6248402;22;20012;-83
2022/11/20 11:01:30;;;;;;;19.50;4.93;;;;;;;10.83;100.00;97995.81;6248121;22;20429;-83
2022/11/20 11:03:57;;;;;;;26.55;6.25;;;;;;;10.37;100.00;98001.34;6275242;22;20053;-83
2022/11/20 11:06:40;;;;;;;16.77;6.47;;;;;;;10.79;100.00;98003.31;6248349;22;20077;-84
2022/11/20 11:09:19;;;;;;;22.02;5.65;;;;;;;10.64;100.00;97995.84;6248131;22;20430;-83
2022/11/20 11:11:45;;;;;;;19.23;6.38;;;;;;;10.42;100.00;97992.84;6223005;22;20066;-83
2022/11/20 11:14:15;;;;;;;27.02;7.28;;;;;;;10.71;100.00;97991.28;6275319;22;20086;-83
2022/11/20 11:16:52;;;;;;;23.13;5.85;;;;;;;10.57;100.00;98001.16;6274040;22;20019;-83
2022/11/20 11:19:20;;;;;;;25.90;5.75;;;;;;;10.48;100.00;97994.59;6275337;22;20054;-83
2022/11/20 11:21:49;;;;;;;14.65;6.07;;;;;;;10.15;100.00;97998.34;6275384;22;20012;-83
2022/11/20 11:24:27;;;;;;;30.83;7.63;;;;;;;10.19;100.00;97988.22;6275039;22;20011;-82
2022/11/20 11:26:58;;;;;;;23.30;7.00;;;;;;;10.25;100.00;97987.38;6275139;22;20042;-83
2022/11/20 11:29:29;;;;;;;18.70;5.57;;;;;;;10.22;100.00;97982.53;6275245;22;20035;-83
2022/11/20 11:32:11;;;;;;;19.08;5.35;;;;;;;9.85;100.00;97988.53;6275276;22;20012;-84